sensor_id;sensor_type;location;lat;lon;timestamp;pressure;altitude;pressure_sealevel;temperature;humidity
67980;BME280;54760;47.490;19.030;2022-08-04T00:02:21;100199.00;;;24.62;44.35
67980;BME280;54760;47.490;19.030;2022-08-04T00:05:34;100197.97;;;24.65;49.71
67980;BME280;54760;47.490;19.030;2022-08-04T00:10:59;100192.84;;;24.80;49.48
67980;BME280;54760;47.490;19.030;2022-08-04T00:13:27;100192.34;;;24.76;47.28
67980;BME280;54760;47.490;19.030;2022-08-04T00:15:58;100187.34;;;24.52;41.57
67980;BME280;54760;47.490;19.030;2022-08-04T00:18:40;100183.50;;;24.55;42.95
67980;BME280;54760;47.490;19.030;2022-08-04T00:21:09;100194.25;;;24.18;44.36
67980;BME280;54760;47.490;19.030;2022-08-04T00:23:37;100196.75;;;24.10;41.51
67980;BME280;54760;47.490;19.030;2022-08-04T00:26:03;100194.47;;;24.14;42.94
67980;BME280;54760;47.490;19.030;2022-08-04T00:28:29;100189.13;;;24.39;44.51
67980;BME280;54760;47.490;19.030;2022-08-04T00:30:55;100188.88;;;24.48;44.68
67980;BME280;54760;47.490;19.030;2022-08-04T00:33:20;100195.75;;;24.36;47.00
67980;BME280;54760;47.490;19.030;2022-08-04T00:35:49;100196.25;;;24.45;47.47
67980;BME280;54760;47.490;19.030;2022-08-04T00:38:16;100201.62;;;24.27;49.07
67980;BME280;54760;47.490;19.030;2022-08-04T00:49:21;100207.47;;;24.23;47.97
67980;BME280;54760;47.490;19.030;2022-08-04T00:54:41;100205.16;;;24.10;46.19
67980;BME280;54760;47.490;19.030;2022-08-04T01:00:04;100211.00;;;24.01;48.83
67980;BME280;54760;47.490;19.030;2022-08-04T01:02:44;100211.28;;;24.03;48.00
67980;BME280;54760;47.490;19.030;2022-08-04T01:16:08;100215.59;;;23.99;48.31
67980;BME280;54760;47.490;19.030;2022-08-04T01:26:49;100211.00;;;24.01;48.44
67980;BME280;54760;47.490;19.030;2022-08-04T01:29:22;100211.75;;;23.74;46.18
67980;BME280;54760;47.490;19.030;2022-08-04T01:32:03;100210.50;;;23.86;50.23
67980;BME280;54760;47.490;19.030;2022-08-04T01:34:42;100213.28;;;23.75;48.00
67980;BME280;54760;47.490;19.030;2022-08-04T01:40:02;100216.84;;;23.81;50.62
67980;BME280;54760;47.490;19.030;2022-08-04T01:42:31;100222.16;;;23.68;49.48
67980;BME280;54760;47.490;19.030;2022-08-04T01:45:02;100216.81;;;23.59;49.71
67980;BME280;54760;47.490;19.030;2022-08-04T01:47:29;100222.12;;;23.51;50.29
67980;BME280;54760;47.490;19.030;2022-08-04T01:50:01;100208.91;;;23.46;49.13
67980;BME280;54760;47.490;19.030;2022-08-04T01:52:30;100213.00;;;23.56;48.39
67980;BME280;54760;47.490;19.030;2022-08-04T01:54:56;100213.25;;;23.53;51.20
67980;BME280;54760;47.490;19.030;2022-08-04T01:57:22;100209.63;;;23.30;49.29
67980;BME280;54760;47.490;19.030;2022-08-04T01:59:50;100211.13;;;23.37;49.59
67980;BME280;54760;47.490;19.030;2022-08-04T02:02:16;100210.47;;;23.64;52.08
67980;BME280;54760;47.490;19.030;2022-08-04T02:04:41;100213.75;;;23.51;50.72
67980;BME280;54760;47.490;19.030;2022-08-04T02:07:23;100204.38;;;23.54;52.35
67980;BME280;54760;47.490;19.030;2022-08-04T02:10:06;100205.06;;;23.44;52.42
67980;BME280;54760;47.490;19.030;2022-08-04T02:15:28;100204.88;;;23.53;52.28
67980;BME280;54760;47.490;19.030;2022-08-04T02:18:11;100203.59;;;23.54;49.90
67980;BME280;54760;47.490;19.030;2022-08-04T02:20:45;100203.50;;;23.26;49.71
67980;BME280;54760;47.490;19.030;2022-08-04T02:23:28;100198.66;;;23.26;52.50
67980;BME280;54760;47.490;19.030;2022-08-04T02:26:01;100207.59;;;23.42;52.36
67980;BME280;54760;47.490;19.030;2022-08-04T02:31:38;100202.72;;;23.20;51.34
67980;BME280;54760;47.490;19.030;2022-08-04T02:34:08;100203.16;;;23.07;52.55
67980;BME280;54760;47.490;19.030;2022-08-04T02:36:39;100201.41;;;23.04;51.10
67980;BME280;54760;47.490;19.030;2022-08-04T02:39:07;100200.59;;;22.98;53.04
67980;BME280;54760;47.490;19.030;2022-08-04T02:41:33;100203.63;;;22.89;50.70
67980;BME280;54760;47.490;19.030;2022-08-04T02:44:02;100208.75;;;23.07;51.97
67980;BME280;54760;47.490;19.030;2022-08-04T02:46:29;100206.47;;;23.00;50.61
67980;BME280;54760;47.490;19.030;2022-08-04T02:48:55;100204.97;;;23.10;54.85
67980;BME280;54760;47.490;19.030;2022-08-04T02:51:27;100195.31;;;23.06;50.02
67980;BME280;54760;47.490;19.030;2022-08-04T02:53:55;100196.75;;;22.84;52.92
67980;BME280;54760;47.490;19.030;2022-08-04T02:56:22;100200.78;;;22.83;53.69
67980;BME280;54760;47.490;19.030;2022-08-04T02:58:52;100202.41;;;23.01;53.91
67980;BME280;54760;47.490;19.030;2022-08-04T03:01:17;100198.34;;;23.08;54.15
67980;BME280;54760;47.490;19.030;2022-08-04T03:03:50;100193.97;;;22.90;52.78
67980;BME280;54760;47.490;19.030;2022-08-04T03:11:55;100197.00;;;22.81;54.16
67980;BME280;54760;47.490;19.030;2022-08-04T03:22:42;100203.91;;;23.02;55.38
67980;BME280;54760;47.490;19.030;2022-08-04T03:51:08;100206.91;;;22.82;52.84
67980;BME280;54760;47.490;19.030;2022-08-04T04:00:14;100212.16;;;22.74;52.78
67980;BME280;54760;47.490;19.030;2022-08-04T04:03:00;100214.84;;;22.63;54.10
67980;BME280;54760;47.490;19.030;2022-08-04T04:05:56;100215.56;;;22.95;52.04
67980;BME280;54760;47.490;19.030;2022-08-04T04:17:07;100219.19;;;23.12;51.56
67980;BME280;54760;47.490;19.030;2022-08-04T04:23:09;100221.72;;;23.10;49.44
67980;BME280;54760;47.490;19.030;2022-08-04T04:31:24;100219.28;;;23.35;49.63
67980;BME280;54760;47.490;19.030;2022-08-04T04:34:07;100220.56;;;23.39;49.92
67980;BME280;54760;47.490;19.030;2022-08-04T04:39:40;100228.00;;;23.64;48.92
67980;BME280;54760;47.490;19.030;2022-08-04T04:45:20;100230.06;;;23.69;48.38
67980;BME280;54760;47.490;19.030;2022-08-04T04:47:49;100226.97;;;23.62;48.50
67980;BME280;54760;47.490;19.030;2022-08-04T04:53:10;100224.19;;;23.67;48.56
67980;BME280;54760;47.490;19.030;2022-08-04T04:55:42;100235.12;;;23.60;48.48
67980;BME280;54760;47.490;19.030;2022-08-04T04:58:12;100233.59;;;23.59;48.56
67980;BME280;54760;47.490;19.030;2022-08-04T05:00:54;100236.41;;;23.81;49.29
67980;BME280;54760;47.490;19.030;2022-08-04T05:14:10;100241.78;;;24.46;47.28
67980;BME280;54760;47.490;19.030;2022-08-04T05:16:42;100235.66;;;24.53;47.21
67980;BME280;54760;47.490;19.030;2022-08-04T05:21:41;100238.69;;;24.55;46.44
67980;BME280;54760;47.490;19.030;2022-08-04T05:24:10;100246.59;;;24.45;46.70
67980;BME280;54760;47.490;19.030;2022-08-04T05:26:43;100246.81;;;24.64;46.33
67980;BME280;54760;47.490;19.030;2022-08-04T05:29:15;100244.56;;;24.63;45.88
67980;BME280;54760;47.490;19.030;2022-08-04T05:31:48;100248.09;;;24.69;45.82
67980;BME280;54760;47.490;19.030;2022-08-04T05:34:21;100255.44;;;24.88;45.75
67980;BME280;54760;47.490;19.030;2022-08-04T05:36:53;100243.72;;;24.95;45.10
67980;BME280;54760;47.490;19.030;2022-08-04T05:39:27;100251.09;;;24.93;45.08
67980;BME280;54760;47.490;19.030;2022-08-04T05:41:54;100244.50;;;24.90;45.23
67980;BME280;54760;47.490;19.030;2022-08-04T05:44:22;100249.28;;;25.07;45.04
67980;BME280;54760;47.490;19.030;2022-08-04T05:46:51;100256.16;;;25.06;44.35
67980;BME280;54760;47.490;19.030;2022-08-04T05:49:19;100265.09;;;24.98;44.12
67980;BME280;54760;47.490;19.030;2022-08-04T05:51:46;100256.63;;;25.21;44.50
67980;BME280;54760;47.490;19.030;2022-08-04T05:54:13;100260.28;;;25.51;42.79
67980;BME280;54760;47.490;19.030;2022-08-04T05:56:39;100261.91;;;26.23;41.46
67980;BME280;54760;47.490;19.030;2022-08-04T05:59:07;100260.31;;;27.06;42.14
67980;BME280;54760;47.490;19.030;2022-08-04T06:01:37;100263.87;;;27.49;38.49
67980;BME280;54760;47.490;19.030;2022-08-04T06:04:04;100268.31;;;28.14;37.93
67980;BME280;54760;47.490;19.030;2022-08-04T06:06:30;100268.41;;;28.67;37.15
67980;BME280;54760;47.490;19.030;2022-08-04T06:08:56;100266.03;;;29.23;35.32
67980;BME280;54760;47.490;19.030;2022-08-04T06:11:23;100262.41;;;29.62;33.95
67980;BME280;54760;47.490;19.030;2022-08-04T06:13:53;100257.75;;;30.20;33.46
67980;BME280;54760;47.490;19.030;2022-08-04T06:16:22;100265.00;;;30.77;31.33
67980;BME280;54760;47.490;19.030;2022-08-04T06:18:50;100261.13;;;30.95;32.87
67980;BME280;54760;47.490;19.030;2022-08-04T06:21:21;100259.34;;;31.49;29.63
67980;BME280;54760;47.490;19.030;2022-08-04T06:23:48;100251.38;;;31.40;30.97
67980;BME280;54760;47.490;19.030;2022-08-04T06:26:15;100263.03;;;31.80;28.94
67980;BME280;54760;47.490;19.030;2022-08-04T06:28:49;100260.47;;;32.50;28.04
67980;BME280;54760;47.490;19.030;2022-08-04T06:31:17;100258.91;;;31.81;28.54
67980;BME280;54760;47.490;19.030;2022-08-04T06:34:07;100262.47;;;31.30;29.56
67980;BME280;54760;47.490;19.030;2022-08-04T06:36:33;100266.78;;;31.24;31.58
67980;BME280;54760;47.490;19.030;2022-08-04T06:39:02;100264.63;;;29.77;32.36
67980;BME280;54760;47.490;19.030;2022-08-04T06:41:29;100262.75;;;29.59;32.94
67980;BME280;54760;47.490;19.030;2022-08-04T06:43:58;100267.47;;;29.04;33.71
67980;BME280;54760;47.490;19.030;2022-08-04T06:46:25;100261.69;;;28.70;33.80
67980;BME280;54760;47.490;19.030;2022-08-04T06:48:52;100261.47;;;28.55;35.19
67980;BME280;54760;47.490;19.030;2022-08-04T06:51:20;100259.91;;;28.40;35.12
67980;BME280;54760;47.490;19.030;2022-08-04T06:53:46;100261.53;;;28.36;36.17
67980;BME280;54760;47.490;19.030;2022-08-04T06:56:13;100256.28;;;28.14;35.73
67980;BME280;54760;47.490;19.030;2022-08-04T06:58:41;100259.28;;;28.34;36.63
67980;BME280;54760;47.490;19.030;2022-08-04T07:01:09;100256.34;;;28.08;35.10
67980;BME280;54760;47.490;19.030;2022-08-04T07:03:35;100263.81;;;28.24;35.64
67980;BME280;54760;47.490;19.030;2022-08-04T07:06:01;100262.69;;;28.14;35.47
67980;BME280;54760;47.490;19.030;2022-08-04T07:08:26;100261.22;;;28.08;34.66
67980;BME280;54760;47.490;19.030;2022-08-04T07:10:53;100261.59;;;28.17;35.29
67980;BME280;54760;47.490;19.030;2022-08-04T07:13:21;100261.44;;;28.28;35.33
67980;BME280;54760;47.490;19.030;2022-08-04T07:15:47;100262.97;;;28.42;34.47
67980;BME280;54760;47.490;19.030;2022-08-04T07:18:14;100258.00;;;28.62;34.28
67980;BME280;54760;47.490;19.030;2022-08-04T07:20:41;100260.59;;;28.47;33.95
67980;BME280;54760;47.490;19.030;2022-08-04T07:23:07;100261.03;;;28.64;33.81
67980;BME280;54760;47.490;19.030;2022-08-04T07:25:35;100260.16;;;28.69;32.97
67980;BME280;54760;47.490;19.030;2022-08-04T07:28:00;100268.25;;;28.78;33.03
67980;BME280;54760;47.490;19.030;2022-08-04T07:30:27;100261.53;;;28.81;32.51
67980;BME280;54760;47.490;19.030;2022-08-04T07:32:54;100262.06;;;28.79;32.40
67980;BME280;54760;47.490;19.030;2022-08-04T07:35:20;100257.03;;;28.59;32.10
67980;BME280;54760;47.490;19.030;2022-08-04T07:37:46;100259.56;;;28.76;32.14
67980;BME280;54760;47.490;19.030;2022-08-04T07:40:11;100250.56;;;29.04;31.56
67980;BME280;54760;47.490;19.030;2022-08-04T07:42:37;100254.75;;;29.23;32.80
67980;BME280;54760;47.490;19.030;2022-08-04T07:45:03;100233.81;;;29.45;32.83
67980;BME280;54760;47.490;19.030;2022-08-04T07:47:29;100240.69;;;29.37;31.62
67980;BME280;54760;47.490;19.030;2022-08-04T07:49:55;100244.59;;;29.34;31.37
67980;BME280;54760;47.490;19.030;2022-08-04T07:52:21;100243.13;;;29.53;31.42
67980;BME280;54760;47.490;19.030;2022-08-04T07:54:47;100245.28;;;29.60;30.61
67980;BME280;54760;47.490;19.030;2022-08-04T07:57:15;100227.88;;;29.36;31.01
67980;BME280;54760;47.490;19.030;2022-08-04T07:59:42;100235.38;;;29.67;31.01
67980;BME280;54760;47.490;19.030;2022-08-04T08:02:08;100234.06;;;29.68;30.88
67980;BME280;54760;47.490;19.030;2022-08-04T08:04:34;100228.72;;;29.44;31.00
67980;BME280;54760;47.490;19.030;2022-08-04T08:07:00;100236.09;;;29.47;30.84
67980;BME280;54760;47.490;19.030;2022-08-04T08:09:26;100244.09;;;29.56;31.21
67980;BME280;54760;47.490;19.030;2022-08-04T08:11:52;100233.13;;;29.86;30.08
67980;BME280;54760;47.490;19.030;2022-08-04T08:14:19;100234.41;;;29.98;31.52
67980;BME280;54760;47.490;19.030;2022-08-04T08:16:45;100227.78;;;30.17;31.34
67980;BME280;54760;47.490;19.030;2022-08-04T08:19:11;100226.38;;;30.31;30.60
67980;BME280;54760;47.490;19.030;2022-08-04T08:21:37;100225.00;;;30.45;29.59
67980;BME280;54760;47.490;19.030;2022-08-04T08:24:04;100231.50;;;30.53;28.86
67980;BME280;54760;47.490;19.030;2022-08-04T08:26:29;100225.00;;;30.45;28.80
67980;BME280;54760;47.490;19.030;2022-08-04T08:28:56;100227.03;;;30.65;29.58
67980;BME280;54760;47.490;19.030;2022-08-04T08:31:21;100228.97;;;30.70;28.77
67980;BME280;54760;47.490;19.030;2022-08-04T08:33:48;100234.53;;;30.83;29.87
67980;BME280;54760;47.490;19.030;2022-08-04T08:39:09;100228.62;;;31.10;29.43
67980;BME280;54760;47.490;19.030;2022-08-04T08:57:54;100227.34;;;31.11;27.97
67980;BME280;54760;47.490;19.030;2022-08-04T09:09:24;100227.34;;;31.11;28.28
67980;BME280;54760;47.490;19.030;2022-08-04T09:14:24;100229.31;;;31.38;28.99
67980;BME280;54760;47.490;19.030;2022-08-04T09:16:57;100230.87;;;31.47;28.06
67980;BME280;54760;47.490;19.030;2022-08-04T09:19:36;100225.56;;;31.44;28.27
67980;BME280;54760;47.490;19.030;2022-08-04T09:22:12;100228.28;;;31.57;28.25
67980;BME280;54760;47.490;19.030;2022-08-04T09:24:49;100228.88;;;31.70;28.73
67980;BME280;54760;47.490;19.030;2022-08-04T09:27:45;100217.00;;;31.87;28.11
67980;BME280;54760;47.490;19.030;2022-08-04T09:30:17;100217.69;;;31.57;28.26
67980;BME280;54760;47.490;19.030;2022-08-04T09:33:49;100226.44;;;31.74;27.42
67980;BME280;54760;47.490;19.030;2022-08-04T09:44:54;100225.00;;;32.34;26.65
67980;BME280;54760;47.490;19.030;2022-08-04T09:49:54;100212.50;;;32.67;26.40
67980;BME280;54760;47.490;19.030;2022-08-04T09:55:10;100208.34;;;32.69;26.80
67980;BME280;54760;47.490;19.030;2022-08-04T10:00:10;100211.38;;;32.48;26.47
67980;BME280;54760;47.490;19.030;2022-08-04T10:03:04;100199.25;;;32.78;25.91
67980;BME280;54760;47.490;19.030;2022-08-04T10:14:09;100191.66;;;32.88;26.41
67980;BME280;54760;47.490;19.030;2022-08-04T10:16:59;100188.31;;;32.66;26.03
67980;BME280;54760;47.490;19.030;2022-08-04T10:19:33;100197.28;;;32.95;26.26
67980;BME280;54760;47.490;19.030;2022-08-04T10:27:27;100184.88;;;32.83;25.00
67980;BME280;54760;47.490;19.030;2022-08-04T10:29:58;100187.66;;;32.98;26.68
67980;BME280;54760;47.490;19.030;2022-08-04T10:32:42;100178.75;;;33.02;25.26
67980;BME280;54760;47.490;19.030;2022-08-04T10:35:17;100181.91;;;33.21;25.31
67980;BME280;54760;47.490;19.030;2022-08-04T10:40:42;100180.13;;;33.33;24.75
67980;BME280;54760;47.490;19.030;2022-08-04T10:46:05;100172.75;;;33.63;24.49
67980;BME280;54760;47.490;19.030;2022-08-04T10:49:03;100165.41;;;33.60;26.31
67980;BME280;54760;47.490;19.030;2022-08-04T10:51:32;100159.19;;;33.53;26.03
67980;BME280;54760;47.490;19.030;2022-08-04T10:54:06;100155.00;;;33.62;24.85
67980;BME280;54760;47.490;19.030;2022-08-04T10:56:46;100159.53;;;33.58;24.63
67980;BME280;54760;47.490;19.030;2022-08-04T10:59:17;100154.38;;;33.64;25.32
67980;BME280;54760;47.490;19.030;2022-08-04T11:01:47;100148.09;;;33.73;24.52
67980;BME280;54760;47.490;19.030;2022-08-04T11:04:41;100147.47;;;33.82;24.87
67980;BME280;54760;47.490;19.030;2022-08-04T11:07:09;100150.38;;;33.74;24.79
67980;BME280;54760;47.490;19.030;2022-08-04T11:09:38;100145.34;;;33.58;24.28
67980;BME280;54760;47.490;19.030;2022-08-04T11:12:19;100132.47;;;33.89;24.06
67980;BME280;54760;47.490;19.030;2022-08-04T11:14:52;100143.59;;;34.12;23.83
67980;BME280;54760;47.490;19.030;2022-08-04T11:17:24;100133.84;;;34.05;24.54
67980;BME280;54760;47.490;19.030;2022-08-04T11:20:01;100140.31;;;33.81;24.34
67980;BME280;54760;47.490;19.030;2022-08-04T11:22:28;100137.66;;;34.00;25.43
67980;BME280;54760;47.490;19.030;2022-08-04T11:30:46;100128.31;;;34.07;24.54
67980;BME280;54760;47.490;19.030;2022-08-04T11:33:34;100128.84;;;34.13;25.06
67980;BME280;54760;47.490;19.030;2022-08-04T11:36:21;100136.38;;;34.18;24.04
67980;BME280;54760;47.490;19.030;2022-08-04T11:39:02;100136.28;;;34.26;23.68
67980;BME280;54760;47.490;19.030;2022-08-04T11:44:04;100119.44;;;33.86;23.87
67980;BME280;54760;47.490;19.030;2022-08-04T11:46:42;100113.66;;;34.18;24.44
67980;BME280;54760;47.490;19.030;2022-08-04T11:52:04;100117.84;;;34.52;23.65
67980;BME280;54760;47.490;19.030;2022-08-04T11:54:31;100108.56;;;34.51;23.42
67980;BME280;54760;47.490;19.030;2022-08-04T11:56:58;100099.81;;;34.40;23.12
67980;BME280;54760;47.490;19.030;2022-08-04T11:59:25;100103.12;;;34.46;23.06
67980;BME280;54760;47.490;19.030;2022-08-04T12:04:44;100097.22;;;34.68;23.55
67980;BME280;54760;47.490;19.030;2022-08-04T12:07:19;100089.72;;;34.90;22.43
67980;BME280;54760;47.490;19.030;2022-08-04T12:09:55;100077.53;;;34.80;22.40
67980;BME280;54760;47.490;19.030;2022-08-04T12:12:38;100081.34;;;34.92;22.37
67980;BME280;54760;47.490;19.030;2022-08-04T12:18:06;100082.00;;;35.00;22.27
67980;BME280;54760;47.490;19.030;2022-08-04T12:20:41;100071.53;;;35.03;22.30
67980;BME280;54760;47.490;19.030;2022-08-04T12:23:14;100078.78;;;34.87;22.68
67980;BME280;54760;47.490;19.030;2022-08-04T12:25:45;100073.28;;;34.71;22.71
67980;BME280;54760;47.490;19.030;2022-08-04T12:28:21;100082.75;;;34.74;22.95
67980;BME280;54760;47.490;19.030;2022-08-04T12:30:53;100075.22;;;34.52;23.03
67980;BME280;54760;47.490;19.030;2022-08-04T12:33:33;100069.12;;;34.72;22.67
67980;BME280;54760;47.490;19.030;2022-08-04T12:36:20;100071.75;;;34.88;23.00
67980;BME280;54760;47.490;19.030;2022-08-04T12:38:50;100075.03;;;34.84;22.63
67980;BME280;54760;47.490;19.030;2022-08-04T12:41:22;100066.84;;;34.71;22.32
67980;BME280;54760;47.490;19.030;2022-08-04T12:43:49;100066.09;;;34.70;23.20
67980;BME280;54760;47.490;19.030;2022-08-04T12:46:24;100069.00;;;34.80;22.98
67980;BME280;54760;47.490;19.030;2022-08-04T12:48:59;100059.31;;;34.83;22.73
67980;BME280;54760;47.490;19.030;2022-08-04T12:51:26;100060.00;;;34.57;22.27
67980;BME280;54760;47.490;19.030;2022-08-04T12:53:52;100047.41;;;34.94;23.39
67980;BME280;54760;47.490;19.030;2022-08-04T12:56:24;100046.84;;;35.05;22.81
67980;BME280;54760;47.490;19.030;2022-08-04T12:58:52;100049.88;;;35.07;22.41
67980;BME280;54760;47.490;19.030;2022-08-04T13:01:23;100050.75;;;35.10;22.09
67980;BME280;54760;47.490;19.030;2022-08-04T13:06:23;100041.88;;;34.96;23.28
67980;BME280;54760;47.490;19.030;2022-08-04T13:08:49;100054.47;;;34.59;22.51
67980;BME280;54760;47.490;19.030;2022-08-04T13:11:16;100049.31;;;34.13;22.62
67980;BME280;54760;47.490;19.030;2022-08-04T13:13:43;100043.72;;;34.06;23.63
67980;BME280;54760;47.490;19.030;2022-08-04T13:16:10;100035.94;;;34.06;23.09
67980;BME280;54760;47.490;19.030;2022-08-04T13:18:38;100032.00;;;34.02;23.07
67980;BME280;54760;47.490;19.030;2022-08-04T13:21:15;100034.69;;;34.00;22.99
67980;BME280;54760;47.490;19.030;2022-08-04T13:23:42;100035.12;;;34.30;22.80
67980;BME280;54760;47.490;19.030;2022-08-04T13:26:14;100030.09;;;34.39;22.44
67980;BME280;54760;47.490;19.030;2022-08-04T13:28:42;100028.59;;;34.38;22.39
67980;BME280;54760;47.490;19.030;2022-08-04T13:31:14;100026.22;;;34.61;22.40
67980;BME280;54760;47.490;19.030;2022-08-04T13:33:42;100026.94;;;34.34;22.48
67980;BME280;54760;47.490;19.030;2022-08-04T13:36:09;100019.72;;;34.16;23.47
67980;BME280;54760;47.490;19.030;2022-08-04T13:38:45;100017.88;;;34.11;23.51
67980;BME280;54760;47.490;19.030;2022-08-04T13:41:12;100011.72;;;33.88;23.63
67980;BME280;54760;47.490;19.030;2022-08-04T13:43:44;100012.72;;;34.00;23.41
67980;BME280;54760;47.490;19.030;2022-08-04T13:46:15;100004.84;;;33.74;23.26
67980;BME280;54760;47.490;19.030;2022-08-04T13:48:42;100013.78;;;33.70;23.12
67980;BME280;54760;47.490;19.030;2022-08-04T13:51:09;99998.69;;;33.85;23.14
67980;BME280;54760;47.490;19.030;2022-08-04T13:53:39;100005.03;;;33.93;23.21
67980;BME280;54760;47.490;19.030;2022-08-04T13:56:08;100004.03;;;33.81;22.79
67980;BME280;54760;47.490;19.030;2022-08-04T13:58:39;99999.03;;;33.72;22.73
67980;BME280;54760;47.490;19.030;2022-08-04T14:01:14;100003.09;;;33.78;22.76
67980;BME280;54760;47.490;19.030;2022-08-04T14:04:08;100000.03;;;33.84;22.82
67980;BME280;54760;47.490;19.030;2022-08-04T14:06:47;99998.19;;;34.13;23.45
67980;BME280;54760;47.490;19.030;2022-08-04T14:09:15;99995.00;;;34.09;22.74
67980;BME280;54760;47.490;19.030;2022-08-04T14:11:44;99987.69;;;34.06;22.60
67980;BME280;54760;47.490;19.030;2022-08-04T14:14:21;99984.31;;;34.34;22.42
67980;BME280;54760;47.490;19.030;2022-08-04T14:17:09;99973.59;;;34.43;22.16
67980;BME280;54760;47.490;19.030;2022-08-04T14:27:20;99974.72;;;34.30;22.01
67980;BME280;54760;47.490;19.030;2022-08-04T14:29:45;99973.78;;;34.27;22.26
67980;BME280;54760;47.490;19.030;2022-08-04T14:32:11;99977.44;;;34.38;21.70
67980;BME280;54760;47.490;19.030;2022-08-04T14:34:38;99974.97;;;34.24;22.47
67980;BME280;54760;47.490;19.030;2022-08-04T14:37:08;99972.88;;;34.08;22.42
67980;BME280;54760;47.490;19.030;2022-08-04T14:39:39;99965.97;;;34.18;22.84
67980;BME280;54760;47.490;19.030;2022-08-04T14:42:06;99978.31;;;33.96;22.94
67980;BME280;54760;47.490;19.030;2022-08-04T14:44:51;99982.72;;;34.07;23.78
67980;BME280;54760;47.490;19.030;2022-08-04T14:47:17;99975.47;;;34.30;23.22
67980;BME280;54760;47.490;19.030;2022-08-04T14:49:53;99971.97;;;34.22;24.23
67980;BME280;54760;47.490;19.030;2022-08-04T14:52:23;99964.94;;;34.23;22.83
67980;BME280;54760;47.490;19.030;2022-08-04T14:54:49;99974.47;;;34.18;22.28
67980;BME280;54760;47.490;19.030;2022-08-04T14:57:15;99965.84;;;34.26;21.96
67980;BME280;54760;47.490;19.030;2022-08-04T14:59:46;99970.97;;;34.10;22.26
67980;BME280;54760;47.490;19.030;2022-08-04T15:02:13;99965.59;;;34.14;22.84
67980;BME280;54760;47.490;19.030;2022-08-04T15:04:40;99966.75;;;34.11;22.16
67980;BME280;54760;47.490;19.030;2022-08-04T15:07:07;99960.28;;;34.18;22.84
67980;BME280;54760;47.490;19.030;2022-08-04T15:09:32;99959.44;;;34.25;22.14
67980;BME280;54760;47.490;19.030;2022-08-04T15:11:58;99965.22;;;34.18;22.14
67980;BME280;54760;47.490;19.030;2022-08-04T15:14:24;99958.00;;;34.17;21.94
67980;BME280;54760;47.490;19.030;2022-08-04T15:16:49;99963.69;;;34.00;22.29
67980;BME280;54760;47.490;19.030;2022-08-04T15:19:15;99960.09;;;33.82;22.87
67980;BME280;54760;47.490;19.030;2022-08-04T15:21:41;99961.88;;;33.94;22.31
67980;BME280;54760;47.490;19.030;2022-08-04T15:24:06;99955.94;;;33.83;22.35
67980;BME280;54760;47.490;19.030;2022-08-04T15:26:42;99966.69;;;34.02;22.93
67980;BME280;54760;47.490;19.030;2022-08-04T15:29:18;99957.44;;;34.01;23.35
67980;BME280;54760;47.490;19.030;2022-08-04T15:31:45;99959.78;;;33.95;23.31
67980;BME280;54760;47.490;19.030;2022-08-04T15:34:12;99954.44;;;33.99;22.61
67980;BME280;54760;47.490;19.030;2022-08-04T15:36:52;99953.25;;;34.02;22.51
67980;BME280;54760;47.490;19.030;2022-08-04T15:42:42;99949.25;;;33.71;23.07
67980;BME280;54760;47.490;19.030;2022-08-04T15:45:16;99951.75;;;33.67;22.92
67980;BME280;54760;47.490;19.030;2022-08-04T15:50:20;99942.59;;;33.76;23.33
67980;BME280;54760;47.490;19.030;2022-08-04T15:58:00;99943.88;;;33.58;22.85
67980;BME280;54760;47.490;19.030;2022-08-04T16:00:26;99940.53;;;33.51;24.21
67980;BME280;54760;47.490;19.030;2022-08-04T16:02:52;99934.03;;;33.59;22.71
67980;BME280;54760;47.490;19.030;2022-08-04T16:08:09;99932.69;;;33.60;23.39
67980;BME280;54760;47.490;19.030;2022-08-04T16:10:43;99929.75;;;33.50;22.90
67980;BME280;54760;47.490;19.030;2022-08-04T16:13:10;99931.50;;;33.45;22.83
67980;BME280;54760;47.490;19.030;2022-08-04T16:18:04;99931.00;;;33.22;23.06
67980;BME280;54760;47.490;19.030;2022-08-04T16:20:30;99933.09;;;33.14;23.05
67980;BME280;54760;47.490;19.030;2022-08-04T16:23:00;99929.12;;;33.17;23.11
67980;BME280;54760;47.490;19.030;2022-08-04T16:25:43;99924.31;;;33.27;23.28
67980;BME280;54760;47.490;19.030;2022-08-04T16:28:36;99925.66;;;33.26;23.35
67980;BME280;54760;47.490;19.030;2022-08-04T16:31:03;99920.88;;;33.29;23.41
67980;BME280;54760;47.490;19.030;2022-08-04T16:33:30;99925.19;;;33.37;23.18
67980;BME280;54760;47.490;19.030;2022-08-04T16:35:57;99920.94;;;33.46;23.10
67980;BME280;54760;47.490;19.030;2022-08-04T16:38:24;99925.81;;;33.28;23.36
67980;BME280;54760;47.490;19.030;2022-08-04T16:40:54;99930.00;;;33.44;23.33
67980;BME280;54760;47.490;19.030;2022-08-04T16:43:21;99923.66;;;33.36;23.41
67980;BME280;54760;47.490;19.030;2022-08-04T16:45:58;99927.34;;;33.46;23.15
67980;BME280;54760;47.490;19.030;2022-08-04T16:50:56;99923.81;;;33.38;23.76
67980;BME280;54760;47.490;19.030;2022-08-04T16:53:24;99919.97;;;33.26;24.07
67980;BME280;54760;47.490;19.030;2022-08-04T16:55:52;99921.81;;;33.31;23.74
67980;BME280;54760;47.490;19.030;2022-08-04T16:58:27;99919.09;;;33.41;24.39
67980;BME280;54760;47.490;19.030;2022-08-04T17:00:54;99922.91;;;33.36;23.11
67980;BME280;54760;47.490;19.030;2022-08-04T17:03:20;99916.06;;;33.22;23.49
67980;BME280;54760;47.490;19.030;2022-08-04T17:05:45;99920.41;;;33.15;23.29
67980;BME280;54760;47.490;19.030;2022-08-04T17:08:11;99915.91;;;33.12;23.26